Time;durP1;ratioP1;P1;durP2;ratioP2;P2;SDS_P1;SDS_P2;PMS_P1;PMS_P2;Temp;Humidity;BMP_temperature;BMP_pressure;BME280_temperature;BME280_humidity;BME280_pressure;Samples;Min_cycle;Max_cycle;Signal;HPM_P1;HPM_P2
2022/06/07 00:01:05;;;;;;;8.23;7.53;;;17.50;99.90;;;;;;5111561;28;20409;-68
2022/06/07 00:03:31;;;;;;;8.57;7.97;;;17.50;99.90;;;;;;5110891;28;20492;-68
2022/06/07 00:05:57;;;;;;;8.80;8.20;;;17.50;99.90;;;;;;5111313;28;20414;-68
2022/06/07 00:08:23;;;;;;;7.93;7.37;;;17.50;99.90;;;;;;5111080;28;20433;-73
2022/06/07 00:10:50;;;;;;;9.93;8.83;;;17.40;99.90;;;;;;5111045;28;20626;-68
2022/06/07 00:13:17;;;;;;;8.87;8.17;;;17.40;99.90;;;;;;5111483;28;20182;-68
2022/06/07 00:15:44;;;;;;;8.30;7.70;;;17.40;99.90;;;;;;5110980;28;21066;-68
2022/06/07 00:18:11;;;;;;;7.73;7.33;;;17.40;99.90;;;;;;5107434;28;20440;-68
2022/06/07 00:20:38;;;;;;;8.83;8.23;;;17.30;99.90;;;;;;5111408;28;20479;-68
2022/06/07 00:23:07;;;;;;;7.97;7.30;;;17.30;99.90;;;;;;5111368;28;21120;-70
2022/06/07 00:25:33;;;;;;;8.40;7.70;;;17.30;99.90;;;;;;5111987;28;20454;-68
2022/06/07 00:27:59;;;;;;;8.40;7.90;;;17.30;99.90;;;;;;5111357;28;20416;-68
2022/06/07 00:30:26;;;;;;;7.90;7.40;;;17.30;99.90;;;;;;5108242;28;20425;-73
2022/06/07 00:32:52;;;;;;;8.00;7.50;;;17.30;99.90;;;;;;5108660;28;20795;-68
2022/06/07 00:35:18;;;;;;;8.20;7.60;;;17.20;99.90;;;;;;5111210;28;20409;-68
2022/06/07 00:37:43;;;;;;;8.37;7.67;;;17.20;99.90;;;;;;5110484;28;20172;-68
2022/06/07 00:40:10;;;;;;;8.13;7.63;;;17.20;99.90;;;;;;5108506;28;20203;-68
2022/06/07 00:42:36;;;;;;;8.20;7.53;;;17.20;99.90;;;;;;5114612;28;20178;-68
2022/06/07 00:45:02;;;;;;;7.30;6.80;;;17.20;99.90;;;;;;5115422;28;20409;-68
2022/06/07 00:47:31;;;;;;;7.40;6.80;;;17.20;99.90;;;;;;5113452;28;20533;-68
2022/06/07 00:50:16;;;;;;;8.00;7.40;;;17.10;99.90;;;;;;5114832;28;20469;-68
2022/06/07 00:52:41;;;;;;;8.40;7.80;;;17.10;99.90;;;;;;5114215;27;20756;-68
2022/06/07 00:55:08;;;;;;;8.00;7.30;;;17.10;99.90;;;;;;5115104;28;20459;-67
2022/06/07 00:57:35;;;;;;;7.90;7.30;;;17.10;99.90;;;;;;5114152;27;20186;-68
2022/06/07 01:00:00;;;;;;;7.83;7.33;;;17.00;99.90;;;;;;5114936;28;20453;-68
2022/06/07 01:02:26;;;;;;;7.90;7.30;;;17.00;99.90;;;;;;5114130;28;20567;-73
2022/06/07 01:04:52;;;;;;;8.50;7.90;;;17.00;99.90;;;;;;5116682;27;20217;-68
2022/06/07 01:12:47;;;;;;;8.67;8.07;;;16.90;99.90;;;;;;5094989;28;20402;-67
2022/06/07 01:15:13;;;;;;;8.60;8.00;;;16.90;99.90;;;;;;5117923;27;20757;-68
2022/06/07 01:17:39;;;;;;;8.63;7.83;;;16.90;99.90;;;;;;5115097;28;20415;-68
2022/06/07 01:20:06;;;;;;;7.83;7.33;;;16.80;99.90;;;;;;5127933;27;20237;-68
2022/06/07 01:22:33;;;;;;;8.10;7.60;;;16.80;99.90;;;;;;5135677;27;20228;-68
2022/06/07 01:25:00;;;;;;;8.10;7.50;;;16.80;99.90;;;;;;5133642;27;20428;-68
2022/06/07 01:27:25;;;;;;;8.70;8.00;;;16.70;99.90;;;;;;5135839;27;20527;-74
2022/06/07 01:29:51;;;;;;;7.17;6.63;;;16.70;99.90;;;;;;5136059;27;20547;-67
2022/06/07 01:32:18;;;;;;;8.60;7.90;;;16.70;99.90;;;;;;5136329;27;20254;-67
2022/06/07 01:34:45;;;;;;;8.80;8.20;;;16.70;99.90;;;;;;5135463;27;20179;-68
2022/06/07 01:37:13;;;;;;;8.83;8.23;;;16.70;99.90;;;;;;5136168;27;20761;-68
2022/06/07 01:42:23;;;;;;;8.43;7.73;;;16.60;99.90;;;;;;5136159;27;20415;-67
2022/06/07 01:44:50;;;;;;;8.60;8.00;;;16.60;99.90;;;;;;5134048;27;20510;-68
2022/06/07 01:47:22;;;;;;;8.43;7.73;;;16.60;99.90;;;;;;5135664;27;20899;-68
2022/06/07 01:49:49;;;;;;;8.20;7.70;;;16.60;99.90;;;;;;5133834;27;20428;-68
2022/06/07 01:52:16;;;;;;;8.27;7.67;;;16.50;99.90;;;;;;5132574;27;20436;-68
2022/06/07 01:54:42;;;;;;;7.93;7.40;;;16.50;99.90;;;;;;5135067;27;20483;-68
2022/06/07 01:57:08;;;;;;;7.60;7.00;;;16.50;99.90;;;;;;5136119;27;20496;-68
2022/06/07 01:59:35;;;;;;;8.70;8.10;;;16.50;99.90;;;;;;5134871;27;20205;-68
2022/06/07 02:02:01;;;;;;;7.70;7.13;;;16.50;99.90;;;;;;5135934;27;20276;-68
2022/06/07 02:04:27;;;;;;;8.27;7.57;;;16.50;99.90;;;;;;5132714;27;20436;-74
2022/06/07 02:06:53;;;;;;;9.53;8.60;;;16.40;99.90;;;;;;5135552;27;20416;-68
2022/06/07 02:09:20;;;;;;;9.10;8.30;;;16.40;99.90;;;;;;5133271;27;20783;-68
2022/06/07 02:11:46;;;;;;;8.87;8.17;;;16.40;99.90;;;;;;5134763;27;20179;-68
2022/06/07 02:14:12;;;;;;;8.60;7.80;;;16.50;99.90;;;;;;5135797;27;20434;-68
2022/06/07 02:16:38;;;;;;;8.43;7.73;;;16.50;99.90;;;;;;5134611;27;20247;-68
2022/06/07 02:19:06;;;;;;;9.43;8.43;;;16.50;99.90;;;;;;5134897;27;20536;-68
2022/06/07 02:21:32;;;;;;;8.17;7.40;;;16.50;99.90;;;;;;5132628;27;20804;-69
2022/06/07 02:23:58;;;;;;;7.27;6.73;;;16.50;99.90;;;;;;5132852;27;20435;-67
2022/06/07 02:26:42;;;;;;;9.17;8.47;;;16.50;99.90;;;;;;5134127;27;20400;-68
2022/06/07 02:29:25;;;;;;;9.67;8.97;;;16.40;99.90;;;;;;5133653;27;20429;-68
2022/06/07 02:32:04;;;;;;;8.90;8.17;;;16.40;99.90;;;;;;5134503;27;20411;-68
2022/06/07 02:34:30;;;;;;;8.87;8.17;;;16.40;99.90;;;;;;5116166;27;20457;-73
2022/06/07 02:37:01;;;;;;;8.40;7.73;;;16.40;99.90;;;;;;5134687;27;20415;-68
2022/06/07 02:39:28;;;;;;;9.03;8.37;;;16.30;99.90;;;;;;5134990;27;20437;-68
2022/06/07 02:41:55;;;;;;;8.33;7.63;;;16.30;99.90;;;;;;5133467;27;20404;-68
2022/06/07 02:44:21;;;;;;;8.50;7.70;;;16.30;99.90;;;;;;5134836;27;20416;-68
2022/06/07 02:46:47;;;;;;;10.03;9.03;;;16.30;99.90;;;;;;5134020;27;20486;-68
2022/06/07 02:49:12;;;;;;;7.63;7.03;;;16.30;99.90;;;;;;5131699;27;20562;-68
2022/06/07 02:51:38;;;;;;;8.40;7.70;;;16.30;99.90;;;;;;5133923;27;20593;-68
2022/06/07 02:54:04;;;;;;;8.40;7.80;;;16.30;99.90;;;;;;5133192;27;20537;-68
2022/06/07 02:56:29;;;;;;;8.03;7.23;;;16.30;99.90;;;;;;5134559;27;20201;-74
2022/06/07 02:58:55;;;;;;;8.53;7.73;;;16.30;99.90;;;;;;5133018;27;20498;-68
2022/06/07 03:01:21;;;;;;;9.50;8.53;;;16.20;99.90;;;;;;5133388;27;20174;-68
2022/06/07 03:03:47;;;;;;;8.20;7.60;;;16.20;99.90;;;;;;5132607;27;20178;-67
2022/06/07 03:06:13;;;;;;;8.30;7.70;;;16.20;99.90;;;;;;5134742;27;20896;-68
2022/06/07 03:08:39;;;;;;;9.00;8.10;;;16.20;99.90;;;;;;5129704;27;20582;-68
2022/06/07 03:11:05;;;;;;;8.30;7.70;;;16.20;99.90;;;;;;5132508;27;20971;-68
2022/06/07 03:13:31;;;;;;;8.07;7.47;;;16.20;99.90;;;;;;5127962;27;20188;-72
2022/06/07 03:15:57;;;;;;;7.57;6.97;;;16.10;99.90;;;;;;5132827;27;20797;-68
2022/06/07 03:18:22;;;;;;;6.97;6.50;;;16.10;99.90;;;;;;5133229;27;20182;-67
2022/06/07 03:20:50;;;;;;;7.30;6.80;;;16.10;99.90;;;;;;5122754;27;20437;-68
2022/06/07 03:23:16;;;;;;;7.50;7.00;;;16.00;99.90;;;;;;5125545;27;20193;-68
2022/06/07 03:25:42;;;;;;;8.00;7.30;;;16.00;99.90;;;;;;5118350;27;20437;-67
2022/06/07 03:28:08;;;;;;;6.53;6.00;;;16.10;99.90;;;;;;5105181;27;20195;-68
2022/06/07 03:30:34;;;;;;;6.90;6.27;;;16.00;99.90;;;;;;5124043;27;20190;-72
2022/06/07 03:33:00;;;;;;;6.57;5.90;;;16.00;99.90;;;;;;5132750;27;20415;-67
2022/06/07 03:35:26;;;;;;;6.50;6.10;;;16.00;99.90;;;;;;5132452;27;20787;-68
2022/06/07 03:37:52;;;;;;;7.13;6.60;;;16.00;99.90;;;;;;5133033;27;20413;-67
2022/06/07 03:40:43;;;;;;;7.37;6.80;;;16.00;99.90;;;;;;5126233;27;20719;-69
2022/06/07 03:43:05;;;;;;;6.90;6.37;;;16.10;99.90;;;;;;5125413;27;20190;-68
2022/06/07 03:45:31;;;;;;;6.47;5.87;;;16.10;99.90;;;;;;5122106;27;20436;-68
2022/06/07 03:47:58;;;;;;;6.60;6.10;;;16.10;99.90;;;;;;5127220;27;21035;-68
2022/06/07 03:50:24;;;;;;;7.30;6.67;;;16.20;99.90;;;;;;5133633;27;20429;-68
2022/06/07 03:52:49;;;;;;;6.10;5.70;;;16.10;99.90;;;;;;5133113;27;20499;-68
2022/06/07 03:55:15;;;;;;;8.03;5.60;;;16.20;99.90;;;;;;5109422;27;20429;-68
2022/06/07 03:57:41;;;;;;;6.57;6.03;;;16.20;99.90;;;;;;5112143;28;20420;-68
2022/06/07 04:00:07;;;;;;;6.20;5.70;;;16.20;99.90;;;;;;5110911;28;20552;-70
2022/06/07 04:02:34;;;;;;;6.80;6.00;;;16.20;99.90;;;;;;5127327;27;20187;-74
2022/06/07 04:05:00;;;;;;;6.07;5.67;;;16.20;99.90;;;;;;5123190;27;20436;-69
2022/06/07 04:10:10;;;;;;;6.03;5.63;;;16.30;99.90;;;;;;5133461;27;20405;-69
2022/06/07 04:12:36;;;;;;;4.93;4.63;;;16.30;99.90;;;;;;5116263;27;20907;-71
2022/06/07 04:15:03;;;;;;;5.47;4.90;;;16.40;99.90;;;;;;5132837;27;20959;-67
2022/06/07 04:17:28;;;;;;;5.67;5.27;;;16.40;99.90;;;;;;5132429;27;20243;-67
2022/06/07 04:19:54;;;;;;;5.83;5.33;;;16.40;99.90;;;;;;5132254;27;20472;-67
2022/06/07 04:22:20;;;;;;;5.53;5.03;;;16.50;99.90;;;;;;5133205;28;20170;-68
2022/06/07 04:24:46;;;;;;;5.03;4.70;;;16.50;99.90;;;;;;5131261;28;20257;-67
2022/06/07 04:27:13;;;;;;;5.63;5.10;;;16.50;99.90;;;;;;5133228;28;20492;-68
2022/06/07 04:29:39;;;;;;;5.30;4.90;;;16.60;99.90;;;;;;5132487;28;20192;-68
2022/06/07 04:32:05;;;;;;;4.60;4.20;;;16.60;99.90;;;;;;5122737;28;20515;-68
2022/06/07 04:34:31;;;;;;;4.77;4.37;;;16.60;99.90;;;;;;5133006;28;20432;-68
2022/06/07 04:36:57;;;;;;;7.80;5.70;;;16.70;99.90;;;;;;5130639;28;20462;-68
2022/06/07 04:39:23;;;;;;;6.70;6.10;;;16.70;99.90;;;;;;5133305;28;20285;-68
2022/06/07 04:41:48;;;;;;;4.50;4.20;;;16.70;99.90;;;;;;5132388;27;20175;-68
2022/06/07 04:44:14;;;;;;;4.73;4.43;;;16.60;99.90;;;;;;5131767;28;20622;-67
2022/06/07 04:46:40;;;;;;;6.17;5.73;;;16.70;99.90;;;;;;5132467;28;20179;-68
2022/06/07 04:49:06;;;;;;;5.77;5.20;;;16.70;99.90;;;;;;5132983;27;20434;-68
2022/06/07 04:51:35;;;;;;;5.70;5.30;;;16.70;99.90;;;;;;5110588;28;20867;-68
2022/06/07 04:54:01;;;;;;;5.47;5.10;;;16.70;99.90;;;;;;5125184;28;20195;-68
2022/06/07 04:56:30;;;;;;;4.47;4.13;;;16.80;99.90;;;;;;5132951;28;20412;-68
2022/06/07 04:58:57;;;;;;;4.90;4.50;;;16.80;99.90;;;;;;5124721;28;21061;-68
2022/06/07 05:01:35;;;;;;;5.47;4.97;;;16.90;99.90;;;;;;5132474;28;20895;-69
2022/06/07 05:04:02;;;;;;;4.53;4.23;;;16.90;99.90;;;;;;5128599;28;20404;-69
2022/06/07 05:06:36;;;;;;;5.70;5.30;;;17.00;99.90;;;;;;5111093;28;20441;-68
2022/06/07 05:09:06;;;;;;;4.93;4.00;;;17.00;99.90;;;;;;5111770;28;20401;-68
2022/06/07 05:11:32;;;;;;;4.40;4.10;;;17.10;99.90;;;;;;5112155;28;20420;-69
2022/06/07 05:14:02;;;;;;;4.67;4.37;;;17.10;99.60;;;;;;5111493;28;20413;-68
2022/06/07 05:16:27;;;;;;;5.20;3.90;;;17.20;99.70;;;;;;5124576;28;20432;-68
2022/06/07 05:18:54;;;;;;;3.77;3.57;;;17.20;99.10;;;;;;5131561;28;20468;-68
2022/06/07 05:21:22;;;;;;;4.90;4.50;;;17.30;98.90;;;;;;5131249;28;20182;-65
2022/06/07 05:23:48;;;;;;;4.73;4.20;;;17.30;98.70;;;;;;5129727;28;20780;-65
2022/06/07 05:26:22;;;;;;;55.90;42.93;;;17.20;98.50;;;;;;5111079;28;20425;-64
2022/06/07 05:28:47;;;;;;;837.60;576.00;;;17.30;98.80;;;;;;5115118;28;20397;-65
2022/06/07 05:31:13;;;;;;;20.43;15.40;;;17.30;98.90;;;;;;5119571;27;20429;-65
2022/06/07 05:33:39;;;;;;;5.53;4.80;;;17.40;98.60;;;;;;5114704;27;20175;-69
2022/06/07 05:36:06;;;;;;;4.80;4.40;;;17.40;98.70;;;;;;5136101;27;20366;-65
2022/06/07 05:38:32;;;;;;;3.47;3.20;;;17.40;98.00;;;;;;5120769;27;20192;-65
2022/06/07 05:40:58;;;;;;;4.27;4.00;;;17.40;98.30;;;;;;5125938;27;20593;-64
2022/06/07 05:43:24;;;;;;;4.57;4.17;;;17.40;97.30;;;;;;5117771;27;20592;-65
2022/06/07 05:45:53;;;;;;;4.03;3.70;;;17.50;98.30;;;;;;5095872;28;20526;-64
2022/06/07 05:48:19;;;;;;;4.40;4.03;;;17.60;97.60;;;;;;5115086;28;20176;-65
2022/06/07 05:50:50;;;;;;;4.67;4.37;;;17.70;97.80;;;;;;5132988;27;20819;-67
2022/06/07 05:53:17;;;;;;;4.10;3.40;;;17.70;97.20;;;;;;5135653;27;20915;-65
2022/06/07 05:55:44;;;;;;;4.17;3.63;;;17.80;97.20;;;;;;5134767;27;20417;-67
2022/06/07 05:58:10;;;;;;;4.97;4.57;;;17.80;96.90;;;;;;5136134;27;20504;-65
2022/06/07 06:00:36;;;;;;;3.70;3.40;;;17.70;96.40;;;;;;5107452;27;20466;-66
2022/06/07 06:03:03;;;;;;;7.30;3.63;;;17.70;96.10;;;;;;5114571;27;20443;-65
2022/06/07 06:05:28;;;;;;;3.77;3.57;;;17.70;96.10;;;;;;5112613;27;20425;-65
2022/06/07 06:10:38;;;;;;;9.63;7.70;;;17.80;96.20;;;;;;5098202;28;20218;-66
2022/06/07 06:13:05;;;;;;;130.27;91.87;;;17.80;96.40;;;;;;5104186;27;20425;-67
2022/06/07 06:15:30;;;;;;;10.77;5.60;;;17.90;96.20;;;;;;5129206;27;20424;-65
2022/06/07 06:17:56;;;;;;;4.70;4.00;;;17.90;95.40;;;;;;5133810;27;20411;-66
2022/06/07 06:20:23;;;;;;;3.90;3.70;;;18.00;95.10;;;;;;5127257;27;20267;-68
2022/06/07 06:22:49;;;;;;;5.10;4.60;;;18.00;95.00;;;;;;5109980;27;20195;-69
2022/06/07 06:25:15;;;;;;;4.77;4.37;;;18.00;95.50;;;;;;5105247;28;20429;-69
2022/06/07 06:27:41;;;;;;;3.30;3.10;;;18.10;95.90;;;;;;5078314;28;20424;-75
2022/06/07 06:30:10;;;;;;;3.30;3.10;;;18.20;95.30;;;;;;5114311;28;20965;-69
2022/06/07 06:32:36;;;;;;;4.10;3.80;;;18.20;95.70;;;;;;5115114;28;20405;-69
2022/06/07 06:35:04;;;;;;;3.60;3.40;;;18.20;95.50;;;;;;5114798;28;20469;-69
2022/06/07 06:37:30;;;;;;;3.67;2.97;;;18.30;94.80;;;;;;5114363;28;20410;-69
2022/06/07 06:39:55;;;;;;;5.20;3.50;;;18.20;94.40;;;;;;5114063;28;20483;-69
2022/06/07 06:42:21;;;;;;;3.17;2.90;;;18.30;94.70;;;;;;5114822;28;20179;-69
2022/06/07 06:44:47;;;;;;;4.00;3.70;;;18.30;94.40;;;;;;5114189;28;20191;-70
2022/06/07 06:47:13;;;;;;;3.80;3.60;;;18.30;94.30;;;;;;5114774;28;20195;-69
2022/06/07 06:49:41;;;;;;;4.27;3.87;;;18.40;94.80;;;;;;5114954;28;20233;-69
2022/06/07 06:52:09;;;;;;;5.50;3.80;;;18.40;94.70;;;;;;5114697;28;20462;-69
2022/06/07 06:54:36;;;;;;;3.80;3.60;;;18.40;94.30;;;;;;5114675;28;20430;-69
2022/06/07 06:57:03;;;;;;;4.00;3.40;;;18.50;94.30;;;;;;5114046;28;20420;-69
2022/06/07 06:59:30;;;;;;;4.10;3.80;;;18.50;94.80;;;;;;5114273;27;20465;-69
2022/06/07 07:01:57;;;;;;;3.37;3.07;;;18.60;94.60;;;;;;5113814;28;20900;-69
2022/06/07 07:04:22;;;;;;;3.80;3.57;;;18.70;94.50;;;;;;5114478;28;20413;-69
2022/06/07 07:06:49;;;;;;;3.53;3.23;;;18.90;93.60;;;;;;5113742;28;20880;-69
2022/06/07 07:09:18;;;;;;;2.70;2.50;;;18.90;92.80;;;;;;5114476;28;20167;-69
2022/06/07 07:11:46;;;;;;;4.43;3.00;;;19.00;92.50;;;;;;5114082;28;20452;-70
2022/06/07 07:14:13;;;;;;;4.63;3.10;;;19.00;92.70;;;;;;5114424;28;20744;-69
2022/06/07 07:16:48;;;;;;;3.20;2.97;;;19.10;92.30;;;;;;5114442;28;20420;-69
2022/06/07 07:19:17;;;;;;;4.83;4.50;;;19.20;92.40;;;;;;5112668;28;20485;-69
2022/06/07 07:21:46;;;;;;;4.20;4.00;;;19.30;92.60;;;;;;5113627;28;20420;-75
2022/06/07 07:24:15;;;;;;;3.30;3.20;;;19.30;92.10;;;;;;5114311;28;20921;-69
2022/06/07 07:26:43;;;;;;;3.30;3.10;;;19.50;92.20;;;;;;5114203;28;20414;-69
2022/06/07 07:29:11;;;;;;;5.00;2.87;;;19.60;91.80;;;;;;5113952;28;20410;-70
2022/06/07 07:31:38;;;;;;;3.00;2.90;;;19.70;91.20;;;;;;5114033;28;20893;-69
2022/06/07 07:34:07;;;;;;;3.17;3.00;;;19.80;90.70;;;;;;5113333;28;20405;-69
2022/06/07 07:36:34;;;;;;;2.83;2.73;;;19.90;90.60;;;;;;5112620;28;20504;-71
2022/06/07 07:39:01;;;;;;;3.20;3.00;;;20.00;90.60;;;;;;5113059;28;20461;-69
2022/06/07 07:41:32;;;;;;;4.40;3.00;;;20.00;89.50;;;;;;5113778;28;20728;-70
2022/06/07 07:44:00;;;;;;;3.30;3.10;;;20.10;87.50;;;;;;5113178;28;20860;-70
2022/06/07 07:46:31;;;;;;;3.20;2.87;;;20.10;88.80;;;;;;5113649;28;20406;-70
2022/06/07 07:48:56;;;;;;;2.90;2.70;;;20.10;87.70;;;;;;5112813;28;20417;-70
2022/06/07 07:51:34;;;;;;;2.80;2.70;;;20.20;85.60;;;;;;5113529;28;20409;-70
2022/06/07 07:54:02;;;;;;;2.70;2.50;;;20.20;84.50;;;;;;5112800;28;20731;-70
2022/06/07 07:56:29;;;;;;;3.00;2.80;;;20.10;82.40;;;;;;5113460;28;20548;-70
2022/06/07 07:58:56;;;;;;;3.97;3.30;;;20.10;82.20;;;;;;5112871;28;20783;-70
2022/06/07 08:01:25;;;;;;;4.10;3.03;;;20.00;83.40;;;;;;5113414;28;20799;-70
2022/06/07 08:03:52;;;;;;;2.80;2.70;;;19.90;81.80;;;;;;5112551;28;20397;-70
2022/06/07 08:06:20;;;;;;;3.30;2.70;;;19.90;82.50;;;;;;5113360;28;20421;-70
2022/06/07 08:08:48;;;;;;;4.70;2.77;;;19.90;84.10;;;;;;5112659;28;20406;-71
2022/06/07 08:11:15;;;;;;;3.00;2.80;;;19.90;85.60;;;;;;5113683;28;20454;-70
2022/06/07 08:13:42;;;;;;;3.53;2.70;;;19.90;87.00;;;;;;5113204;28;20409;-70
2022/06/07 08:16:08;;;;;;;4.60;2.80;;;20.00;87.30;;;;;;5112381;28;20578;-70
2022/06/07 08:18:35;;;;;;;2.87;2.67;;;20.20;89.00;;;;;;5113079;28;20461;-70
2022/06/07 08:21:05;;;;;;;2.73;2.63;;;20.30;88.50;;;;;;5112630;28;20492;-70
2022/06/07 08:23:32;;;;;;;3.13;2.83;;;20.40;85.90;;;;;;5113088;28;20402;-70
2022/06/07 08:25:59;;;;;;;4.20;4.00;;;20.40;84.00;;;;;;5112456;28;20906;-70
2022/06/07 08:28:25;;;;;;;5.30;2.80;;;20.50;83.40;;;;;;5113090;28;20408;-70
2022/06/07 08:30:52;;;;;;;2.57;2.47;;;20.60;83.20;;;;;;5112718;28;20767;-70
2022/06/07 08:38:55;;;;;;;3.50;3.20;;;20.70;82.10;;;;;;5112083;28;20900;-70
2022/06/07 08:41:53;;;;;;;2.83;2.73;;;20.60;81.40;;;;;;5113425;28;20458;-70
2022/06/07 08:44:28;;;;;;;3.80;3.70;;;20.60;80.50;;;;;;5089584;28;20187;-70
2022/06/07 08:47:27;;;;;;;2.70;2.60;;;20.50;80.90;;;;;;5112509;28;20444;-70
2022/06/07 08:49:55;;;;;;;2.93;2.50;;;20.60;82.80;;;;;;5106134;28;20429;-71
2022/06/07 08:52:31;;;;;;;3.50;3.20;;;20.70;83.50;;;;;;5112944;28;20425;-70
2022/06/07 08:54:58;;;;;;;3.20;3.00;;;20.70;80.60;;;;;;5112347;28;20405;-70
2022/06/07 08:57:31;;;;;;;2.83;2.63;;;20.70;80.20;;;;;;5112811;28;20393;-70
2022/06/07 09:00:06;;;;;;;3.20;3.00;;;20.70;81.30;;;;;;5112178;28;20449;-70
2022/06/07 09:03:13;;;;;;;3.73;3.53;;;20.70;82.60;;;;;;5115594;28;20416;-70
2022/06/07 09:05:39;;;;;;;3.97;3.77;;;20.70;81.40;;;;;;5115192;28;20408;-70
2022/06/07 09:08:05;;;;;;;3.30;3.10;;;20.70;81.40;;;;;;5116171;28;20409;-70
2022/06/07 09:13:23;;;;;;;3.10;2.90;;;20.60;82.30;;;;;;5116699;28;20401;-70
2022/06/07 09:15:54;;;;;;;4.00;3.10;;;20.40;83.10;;;;;;5116712;28;20456;-70
2022/06/07 09:18:24;;;;;;;3.83;3.53;;;20.40;82.40;;;;;;5116552;28;20401;-71
2022/06/07 09:20:56;;;;;;;3.20;3.00;;;20.30;82.60;;;;;;5116109;28;20443;-76
2022/06/07 09:24:02;;;;;;;3.53;3.30;;;20.20;83.30;;;;;;5116809;28;20394;-70
2022/06/07 09:26:36;;;;;;;3.13;3.00;;;20.20;83.80;;;;;;5073216;28;20494;-70
2022/06/07 09:29:06;;;;;;;3.37;3.20;;;20.10;83.60;;;;;;5072803;28;20403;-70
2022/06/07 09:31:32;;;;;;;2.93;2.80;;;20.10;84.50;;;;;;5073288;28;20935;-70
2022/06/07 09:34:04;;;;;;;3.57;3.37;;;20.10;85.50;;;;;;5072725;28;20484;-70
2022/06/07 09:36:37;;;;;;;2.80;2.60;;;20.20;87.80;;;;;;5073365;28;20165;-71
2022/06/07 09:39:25;;;;;;;3.10;2.90;;;20.40;88.90;;;;;;5072622;28;20945;-70
2022/06/07 09:42:00;;;;;;;2.80;2.60;;;20.40;86.60;;;;;;5022944;28;20472;-76
2022/06/07 09:44:32;;;;;;;3.10;3.00;;;20.40;87.10;;;;;;5073042;28;20765;-70
2022/06/07 09:47:15;;;;;;;3.60;3.40;;;20.40;86.50;;;;;;5072468;28;20422;-71
2022/06/07 09:49:45;;;;;;;3.40;3.30;;;20.50;87.80;;;;;;5072755;28;20431;-70
2022/06/07 09:52:14;;;;;;;2.90;2.70;;;20.60;88.50;;;;;;5072281;28;20515;-70
2022/06/07 09:54:43;;;;;;;2.90;2.70;;;20.70;90.20;;;;;;5073080;28;20454;-70
2022/06/07 09:57:22;;;;;;;3.43;3.33;;;20.70;89.00;;;;;;5093464;28;20437;-70
2022/06/07 09:59:54;;;;;;;2.60;2.50;;;20.60;87.20;;;;;;5115777;28;20790;-70
2022/06/07 10:02:44;;;;;;;2.93;2.73;;;20.50;86.90;;;;;;5115989;28;20413;-70
2022/06/07 10:05:13;;;;;;;3.20;2.90;;;20.40;87.20;;;;;;5115080;28;20405;-70
2022/06/07 10:07:58;;;;;;;2.80;2.60;;;20.30;87.40;;;;;;5115726;28;20484;-70
2022/06/07 10:10:33;;;;;;;2.90;2.80;;;20.30;88.20;;;;;;5115560;28;20398;-70
2022/06/07 10:13:10;;;;;;;3.03;2.83;;;20.30;88.70;;;;;;5114595;28;20413;-70
2022/06/07 10:15:41;;;;;;;3.63;3.43;;;20.30;89.10;;;;;;5115302;28;20396;-70
2022/06/07 10:18:16;;;;;;;2.93;2.33;;;20.40;90.50;;;;;;5114639;28;20401;-70
2022/06/07 10:21:00;;;;;;;3.00;2.80;;;20.40;90.20;;;;;;5115212;28;20570;-70
2022/06/07 10:24:03;;;;;;;3.07;2.80;;;20.50;90.30;;;;;;5115387;28;20402;-70
2022/06/07 10:26:52;;;;;;;2.47;2.37;;;20.50;90.50;;;;;;5115021;28;20491;-70
2022/06/07 10:29:44;;;;;;;3.50;3.30;;;20.60;90.40;;;;;;5114928;28;20398;-70
2022/06/07 10:32:21;;;;;;;2.27;2.17;;;20.70;89.90;;;;;;5115075;28;20507;-70
2022/06/07 10:34:54;;;;;;;3.20;3.00;;;20.70;89.90;;;;;;5115441;28;20397;-70
2022/06/07 10:37:42;;;;;;;4.10;2.90;;;20.80;90.30;;;;;;5115148;28;20382;-70
2022/06/07 10:40:08;;;;;;;2.73;2.60;;;20.80;90.00;;;;;;5114093;28;20791;-71
2022/06/07 10:43:01;;;;;;;3.07;2.77;;;20.90;90.60;;;;;;5078844;28;20414;-70
2022/06/07 10:45:30;;;;;;;3.23;3.10;;;21.10;91.80;;;;;;5114856;28;20167;-70
2022/06/07 10:48:06;;;;;;;3.23;2.90;;;21.10;91.30;;;;;;5070718;28;20533;-71
2022/06/07 10:50:37;;;;;;;2.93;2.73;;;21.20;90.80;;;;;;5071705;28;20423;-70
2022/06/07 10:53:15;;;;;;;2.97;2.87;;;21.20;90.60;;;;;;5071136;28;20436;-71
2022/06/07 10:55:51;;;;;;;3.40;3.20;;;21.20;89.80;;;;;;5072012;28;20403;-70
2022/06/07 10:58:27;;;;;;;3.47;2.77;;;21.20;90.20;;;;;;5054518;28;20418;-70
2022/06/07 11:00:58;;;;;;;2.87;2.70;;;21.20;90.40;;;;;;5071426;28;20459;-70
2022/06/07 11:03:45;;;;;;;3.63;3.37;;;21.20;90.00;;;;;;5071594;28;20459;-70
2022/06/07 11:09:31;;;;;;;3.20;2.90;;;21.10;90.50;;;;;;5070958;28;20814;-70
2022/06/07 11:12:06;;;;;;;3.83;3.63;;;21.20;90.00;;;;;;5070300;28;20422;-71
2022/06/07 11:14:57;;;;;;;2.90;2.60;;;21.20;90.30;;;;;;5071427;28;20415;-70
2022/06/07 11:17:50;;;;;;;3.80;3.50;;;21.20;88.40;;;;;;5071407;28;20399;-70
2022/06/07 11:20:29;;;;;;;4.47;4.07;;;21.20;88.70;;;;;;5112937;28;20711;-70
2022/06/07 11:23:07;;;;;;;2.93;2.83;;;21.10;88.10;;;;;;5114267;28;20412;-70
2022/06/07 11:25:37;;;;;;;3.57;2.80;;;21.20;90.00;;;;;;5113513;28;20420;-70
2022/06/07 11:28:24;;;;;;;3.03;2.83;;;21.20;90.10;;;;;;5113318;28;20394;-70
2022/06/07 11:30:54;;;;;;;2.30;2.17;;;21.30;90.10;;;;;;5114208;28;20401;-70
2022/06/07 11:33:58;;;;;;;3.57;3.40;;;21.40;90.00;;;;;;5113478;28;20895;-70
2022/06/07 11:36:36;;;;;;;4.00;3.70;;;21.50;90.10;;;;;;5114088;28;20390;-70
2022/06/07 11:39:18;;;;;;;3.30;3.20;;;21.60;89.30;;;;;;5113207;28;20436;-70
2022/06/07 11:41:47;;;;;;;2.80;2.60;;;21.70;90.20;;;;;;5077807;28;20405;-70
2022/06/07 11:44:16;;;;;;;2.33;2.20;;;21.80;89.00;;;;;;5113248;28;20413;-71
2022/06/07 11:46:51;;;;;;;3.07;2.97;;;21.90;88.80;;;;;;5113581;28;20406;-70
2022/06/07 11:49:25;;;;;;;4.00;2.90;;;22.00;89.90;;;;;;5113145;28;20420;-70
2022/06/07 11:51:59;;;;;;;4.47;4.23;;;22.10;90.20;;;;;;5112582;28;20523;-70
2022/06/07 11:54:34;;;;;;;4.67;4.27;;;22.20;88.70;;;;;;5113656;28;20872;-72
2022/06/07 11:57:32;;;;;;;4.83;4.50;;;22.20;85.10;;;;;;5113000;28;20435;-71
2022/06/07 12:00:19;;;;;;;4.80;4.60;;;22.20;85.00;;;;;;5113518;28;20461;-70
2022/06/07 12:02:56;;;;;;;2.73;2.63;;;22.10;83.80;;;;;;5113412;28;20504;-70
2022/06/07 12:05:28;;;;;;;4.93;2.57;;;22.00;85.90;;;;;;5112432;28;20413;-70
2022/06/07 12:08:02;;;;;;;3.17;2.97;;;22.00;86.00;;;;;;5113169;28;20510;-70
2022/06/07 12:10:38;;;;;;;5.00;4.80;;;21.90;86.70;;;;;;5113138;28;20401;-70
2022/06/07 12:13:49;;;;;;;3.50;3.20;;;21.90;86.70;;;;;;5112721;28;20794;-70
2022/06/07 12:16:25;;;;;;;4.70;3.60;;;21.80;86.00;;;;;;5112348;28;20449;-70
2022/06/07 12:18:57;;;;;;;3.73;3.53;;;21.80;88.20;;;;;;5112770;28;20481;-70
2022/06/07 12:21:24;;;;;;;3.00;2.80;;;21.80;87.90;;;;;;5112785;28;20414;-70
2022/06/07 12:24:16;;;;;;;3.57;3.37;;;21.80;87.60;;;;;;5113329;28;20772;-70
2022/06/07 12:26:47;;;;;;;3.13;2.93;;;21.70;87.00;;;;;;5111909;28;20421;-70
2022/06/07 12:29:29;;;;;;;3.57;3.20;;;21.80;87.90;;;;;;5112670;28;20409;-70
2022/06/07 12:32:04;;;;;;;4.00;3.30;;;21.80;88.90;;;;;;5112020;28;20891;-70
2022/06/07 12:34:33;;;;;;;4.30;4.00;;;21.80;89.50;;;;;;5112157;28;20443;-70
2022/06/07 12:37:22;;;;;;;3.00;2.90;;;21.90;89.30;;;;;;5116851;28;20413;-70
2022/06/07 12:39:57;;;;;;;2.90;2.70;;;21.80;88.00;;;;;;5117294;28;20436;-71
2022/06/07 12:42:27;;;;;;;2.87;2.67;;;21.80;87.40;;;;;;5116736;28;20482;-70
2022/06/07 12:44:56;;;;;;;2.97;2.50;;;21.70;87.40;;;;;;5117625;28;20450;-70
2022/06/07 12:47:33;;;;;;;2.80;2.70;;;21.60;86.30;;;;;;5116339;28;20947;-70
2022/06/07 12:49:59;;;;;;;2.97;2.77;;;21.50;86.20;;;;;;5117761;28;20466;-70
2022/06/07 12:52:31;;;;;;;2.97;2.77;;;21.50;86.80;;;;;;5116604;28;20397;-70
2022/06/07 12:55:21;;;;;;;3.97;2.83;;;21.40;87.30;;;;;;5117123;28;20451;-70
2022/06/07 12:57:58;;;;;;;2.70;2.60;;;21.40;89.70;;;;;;5117252;28;20402;-70
2022/06/07 13:00:42;;;;;;;3.07;2.77;;;21.30;88.50;;;;;;5116115;28;20441;-70
2022/06/07 13:03:26;;;;;;;3.10;2.90;;;21.20;89.60;;;;;;5114878;28;20394;-70
2022/06/07 13:06:05;;;;;;;3.33;3.03;;;21.10;90.50;;;;;;5116989;28;20442;-70
2022/06/07 13:08:38;;;;;;;3.10;3.00;;;21.00;90.70;;;;;;5116905;28;20488;-70
2022/06/07 13:11:09;;;;;;;3.00;2.80;;;20.90;90.90;;;;;;5116254;28;20739;-71
2022/06/07 13:13:40;;;;;;;3.53;3.23;;;20.90;91.40;;;;;;5116809;28;20375;-70
2022/06/07 13:16:09;;;;;;;3.50;3.30;;;20.90;91.80;;;;;;5116141;28;20431;-70
2022/06/07 13:18:38;;;;;;;3.77;3.57;;;20.90;92.20;;;;;;5116110;28;20464;-70
2022/06/07 13:21:13;;;;;;;3.87;3.43;;;20.80;92.40;;;;;;5116209;28;20468;-77
2022/06/07 13:23:42;;;;;;;3.87;3.03;;;20.80;93.00;;;;;;5116521;28;20470;-70
2022/06/07 13:26:26;;;;;;;4.60;4.30;;;20.80;93.60;;;;;;5115855;28;20442;-70
2022/06/07 13:29:17;;;;;;;3.47;3.27;;;20.80;94.00;;;;;;5115309;28;20881;-70